sensor_id;sensor_type;location;lat;lon;timestamp;pressure;altitude;pressure_sealevel;temperature;humidity
77247;BME280;66279;42.820;23.374;2024-03-02T00:00:57;95203.75;;;13.52;62.82
77247;BME280;66279;42.820;23.374;2024-03-02T00:03:23;95204.09;;;13.73;61.93
77247;BME280;66279;42.820;23.374;2024-03-02T00:05:51;95197.50;;;13.47;62.55
77247;BME280;66279;42.820;23.374;2024-03-02T00:08:19;95206.44;;;13.69;61.87
77247;BME280;66279;42.820;23.374;2024-03-02T00:10:47;95204.53;;;13.81;61.22
77247;BME280;66279;42.820;23.374;2024-03-02T00:13:13;95153.25;;;13.41;61.63
77247;BME280;66279;42.820;23.374;2024-03-02T00:18:20;95178.38;;;13.62;61.11
77247;BME280;66279;42.820;23.374;2024-03-02T00:20:46;95187.84;;;13.57;61.42
77247;BME280;66279;42.820;23.374;2024-03-02T00:23:15;95211.59;;;13.76;61.15
77247;BME280;66279;42.820;23.374;2024-03-02T00:25:46;95181.78;;;13.74;60.59
77247;BME280;66279;42.820;23.374;2024-03-02T00:28:22;95202.31;;;13.62;61.66
77247;BME280;66279;42.820;23.374;2024-03-02T00:30:59;95206.84;;;13.61;61.72
77247;BME280;66279;42.820;23.374;2024-03-02T00:33:32;95205.47;;;13.75;60.89
77247;BME280;66279;42.820;23.374;2024-03-02T00:35:58;95197.69;;;13.57;61.44
77247;BME280;66279;42.820;23.374;2024-03-02T00:38:25;95173.00;;;13.45;61.41
77247;BME280;66279;42.820;23.374;2024-03-02T00:40:50;95181.88;;;13.50;61.26
77247;BME280;66279;42.820;23.374;2024-03-02T00:46:06;95180.28;;;13.49;61.53
77247;BME280;66279;42.820;23.374;2024-03-02T00:48:32;95179.13;;;13.45;61.78
77247;BME280;66279;42.820;23.374;2024-03-02T00:51:01;95188.63;;;13.41;61.95
77247;BME280;66279;42.820;23.374;2024-03-02T00:53:29;95166.34;;;13.30;61.75
77247;BME280;66279;42.820;23.374;2024-03-02T00:55:55;95191.88;;;13.43;61.97
77247;BME280;66279;42.820;23.374;2024-03-02T00:58:21;95186.28;;;13.45;61.71
77247;BME280;66279;42.820;23.374;2024-03-02T01:00:46;95193.25;;;13.46;61.69
77247;BME280;66279;42.820;23.374;2024-03-02T01:03:12;95182.84;;;13.44;61.60
77247;BME280;66279;42.820;23.374;2024-03-02T01:05:41;95175.94;;;13.31;62.07
77247;BME280;66279;42.820;23.374;2024-03-02T01:08:07;95161.25;;;13.29;61.70
77247;BME280;66279;42.820;23.374;2024-03-02T01:10:33;95173.78;;;13.45;61.29
77247;BME280;66279;42.820;23.374;2024-03-02T01:12:58;95171.09;;;13.28;62.16
77247;BME280;66279;42.820;23.374;2024-03-02T01:15:24;95170.38;;;13.33;61.86
77247;BME280;66279;42.820;23.374;2024-03-02T01:17:49;95143.94;;;13.14;62.02
77247;BME280;66279;42.820;23.374;2024-03-02T01:20:14;95175.94;;;13.31;62.03
77247;BME280;66279;42.820;23.374;2024-03-02T01:22:40;95174.09;;;13.32;61.80
77247;BME280;66279;42.820;23.374;2024-03-02T01:25:06;95176.34;;;13.52;61.31
77247;BME280;66279;42.820;23.374;2024-03-02T01:27:31;95173.13;;;13.38;61.66
77247;BME280;66279;42.820;23.374;2024-03-02T01:29:56;95171.91;;;13.29;61.53
77247;BME280;66279;42.820;23.374;2024-03-02T01:32:22;95166.28;;;13.42;61.54
77247;BME280;66279;42.820;23.374;2024-03-02T01:34:47;95159.91;;;13.55;61.10
77247;BME280;66279;42.820;23.374;2024-03-02T01:37:13;95142.63;;;13.57;60.32
77247;BME280;66279;42.820;23.374;2024-03-02T01:39:38;95152.63;;;13.50;60.84
77247;BME280;66279;42.820;23.374;2024-03-02T01:42:04;95122.47;;;13.45;60.41
77247;BME280;66279;42.820;23.374;2024-03-02T01:44:30;95143.75;;;13.73;59.96
77247;BME280;66279;42.820;23.374;2024-03-02T01:46:55;95133.22;;;13.67;59.79
77247;BME280;66279;42.820;23.374;2024-03-02T01:49:20;95148.19;;;14.01;59.11
77247;BME280;66279;42.820;23.374;2024-03-02T01:51:46;95138.25;;;13.80;59.52
77247;BME280;66279;42.820;23.374;2024-03-02T01:54:11;95140.03;;;13.74;59.75
77247;BME280;66279;42.820;23.374;2024-03-02T01:56:37;95144.06;;;13.94;59.15
77247;BME280;66279;42.820;23.374;2024-03-02T01:59:03;95138.19;;;13.92;59.64
77247;BME280;66279;42.820;23.374;2024-03-02T02:01:28;95139.06;;;13.97;58.82
77247;BME280;66279;42.820;23.374;2024-03-02T02:03:54;95142.78;;;13.79;59.50
77247;BME280;66279;42.820;23.374;2024-03-02T02:06:20;95151.50;;;13.92;59.07
77247;BME280;66279;42.820;23.374;2024-03-02T02:08:46;95151.56;;;13.97;58.78
77247;BME280;66279;42.820;23.374;2024-03-02T02:11:15;95140.53;;;14.05;58.45
77247;BME280;66279;42.820;23.374;2024-03-02T02:13:40;95141.34;;;14.05;58.37
77247;BME280;66279;42.820;23.374;2024-03-02T02:16:07;95123.03;;;14.09;57.76
77247;BME280;66279;42.820;23.374;2024-03-02T02:18:32;95145.69;;;14.12;58.09
77247;BME280;66279;42.820;23.374;2024-03-02T02:20:58;95125.13;;;14.07;57.94
77247;BME280;66279;42.820;23.374;2024-03-02T02:23:23;95143.53;;;14.25;57.75
77247;BME280;66279;42.820;23.374;2024-03-02T02:25:49;95141.25;;;14.34;57.35
77247;BME280;66279;42.820;23.374;2024-03-02T02:28:14;95133.84;;;14.19;57.64
77247;BME280;66279;42.820;23.374;2024-03-02T02:30:39;95137.47;;;14.30;57.32
77247;BME280;66279;42.820;23.374;2024-03-02T02:33:05;95126.97;;;14.23;57.40
77247;BME280;66279;42.820;23.374;2024-03-02T02:35:30;95138.75;;;14.27;57.31
77247;BME280;66279;42.820;23.374;2024-03-02T02:37:56;95133.75;;;14.31;57.31
77247;BME280;66279;42.820;23.374;2024-03-02T02:40:23;95137.38;;;14.25;57.13
77247;BME280;66279;42.820;23.374;2024-03-02T02:42:49;95136.56;;;14.24;57.23
77247;BME280;66279;42.820;23.374;2024-03-02T02:45:15;95135.38;;;14.32;56.99
77247;BME280;66279;42.820;23.374;2024-03-02T02:47:41;95136.75;;;14.35;56.98
77247;BME280;66279;42.820;23.374;2024-03-02T02:50:07;95103.50;;;14.20;56.93
77247;BME280;66279;42.820;23.374;2024-03-02T02:52:34;95141.66;;;14.26;57.13
77247;BME280;66279;42.820;23.374;2024-03-02T02:55:03;95142.69;;;14.25;57.32
77247;BME280;66279;42.820;23.374;2024-03-02T02:57:28;95123.91;;;14.15;57.24
77247;BME280;66279;42.820;23.374;2024-03-02T02:59:56;95129.25;;;14.15;57.26
77247;BME280;66279;42.820;23.374;2024-03-02T03:02:22;95139.72;;;14.21;57.18
77247;BME280;66279;42.820;23.374;2024-03-02T03:04:47;95129.88;;;14.22;57.04
77247;BME280;66279;42.820;23.374;2024-03-02T03:07:13;95142.94;;;14.23;57.27
77247;BME280;66279;42.820;23.374;2024-03-02T03:09:39;95135.53;;;14.25;56.96
77247;BME280;66279;42.820;23.374;2024-03-02T03:12:04;95139.97;;;14.20;57.06
77247;BME280;66279;42.820;23.374;2024-03-02T03:14:30;95139.09;;;14.14;57.37
77247;BME280;66279;42.820;23.374;2024-03-02T03:16:55;95137.78;;;14.17;57.41
77247;BME280;66279;42.820;23.374;2024-03-02T03:19:20;95139.22;;;14.24;57.17
77247;BME280;66279;42.820;23.374;2024-03-02T03:21:46;95137.47;;;14.13;57.33
77247;BME280;66279;42.820;23.374;2024-03-02T03:24:11;95133.84;;;14.19;57.08
77247;BME280;66279;42.820;23.374;2024-03-02T03:26:37;95119.88;;;13.95;57.41
77247;BME280;66279;42.820;23.374;2024-03-02T03:29:02;95115.34;;;14.13;57.07
77247;BME280;66279;42.820;23.374;2024-03-02T03:31:29;95124.00;;;14.03;57.37
77247;BME280;66279;42.820;23.374;2024-03-02T03:33:54;95140.06;;;14.08;57.40
77247;BME280;66279;42.820;23.374;2024-03-02T03:36:20;95138.44;;;14.07;57.57
77247;BME280;66279;42.820;23.374;2024-03-02T03:38:45;95143.13;;;14.17;57.09
77247;BME280;66279;42.820;23.374;2024-03-02T03:41:11;95142.88;;;14.18;57.17
77247;BME280;66279;42.820;23.374;2024-03-02T03:43:36;95145.03;;;14.21;56.76
77247;BME280;66279;42.820;23.374;2024-03-02T03:46:02;95141.91;;;14.24;56.72
77247;BME280;66279;42.820;23.374;2024-03-02T03:48:27;95137.84;;;13.88;57.32
77247;BME280;66279;42.820;23.374;2024-03-02T03:50:56;95144.31;;;14.09;57.24
77247;BME280;66279;42.820;23.374;2024-03-02T03:53:21;95141.03;;;14.02;57.46
77247;BME280;66279;42.820;23.374;2024-03-02T03:55:47;95143.78;;;14.07;57.18
77247;BME280;66279;42.820;23.374;2024-03-02T03:58:14;95138.81;;;14.16;56.85
77247;BME280;66279;42.820;23.374;2024-03-02T04:00:41;95129.25;;;14.15;57.11
77247;BME280;66279;42.820;23.374;2024-03-02T04:03:07;95137.16;;;14.26;56.41
77247;BME280;66279;42.820;23.374;2024-03-02T04:05:32;95134.72;;;14.08;56.97
77247;BME280;66279;42.820;23.374;2024-03-02T04:07:58;95134.47;;;14.10;57.19
77247;BME280;66279;42.820;23.374;2024-03-02T04:10:23;95122.06;;;13.98;57.03
77247;BME280;66279;42.820;23.374;2024-03-02T04:12:49;95135.53;;;14.09;57.22
77247;BME280;66279;42.820;23.374;2024-03-02T04:15:15;95131.91;;;14.15;57.00
77247;BME280;66279;42.820;23.374;2024-03-02T04:17:41;95130.94;;;14.04;57.02
77247;BME280;66279;42.820;23.374;2024-03-02T04:20:07;95129.72;;;14.12;56.71
77247;BME280;66279;42.820;23.374;2024-03-02T04:22:33;95124.00;;;14.03;56.95
77247;BME280;66279;42.820;23.374;2024-03-02T04:25:00;95132.88;;;14.09;57.05
77247;BME280;66279;42.820;23.374;2024-03-02T04:27:25;95128.59;;;14.08;56.77
77247;BME280;66279;42.820;23.374;2024-03-02T04:29:51;95138.59;;;14.17;56.72
77247;BME280;66279;42.820;23.374;2024-03-02T04:32:16;95099.56;;;13.89;56.73
77247;BME280;66279;42.820;23.374;2024-03-02T04:34:42;95116.50;;;14.00;56.76
77247;BME280;66279;42.820;23.374;2024-03-02T04:37:08;95142.22;;;14.11;56.72
77247;BME280;66279;42.820;23.374;2024-03-02T04:39:35;95140.06;;;14.08;56.65
77247;BME280;66279;42.820;23.374;2024-03-02T04:42:01;95117.03;;;13.85;56.95
77247;BME280;66279;42.820;23.374;2024-03-02T04:44:26;95142.31;;;13.99;57.03
77247;BME280;66279;42.820;23.374;2024-03-02T04:46:51;95140.75;;;14.03;56.73
77247;BME280;66279;42.820;23.374;2024-03-02T04:49:17;95136.28;;;14.04;56.93
77247;BME280;66279;42.820;23.374;2024-03-02T04:51:42;95144.97;;;13.99;57.20
77247;BME280;66279;42.820;23.374;2024-03-02T04:54:08;95135.44;;;14.03;56.78
77247;BME280;66279;42.820;23.374;2024-03-02T04:56:33;95149.97;;;13.96;56.95
77247;BME280;66279;42.820;23.374;2024-03-02T04:59:09;95129.59;;;13.73;57.21
77247;BME280;66279;42.820;23.374;2024-03-02T05:01:35;95148.59;;;13.93;57.10
77247;BME280;66279;42.820;23.374;2024-03-02T05:04:00;95149.47;;;13.99;56.88
77247;BME280;66279;42.820;23.374;2024-03-02T05:06:26;95155.13;;;14.02;57.00
77247;BME280;66279;42.820;23.374;2024-03-02T05:08:51;95151.03;;;13.95;57.13
77247;BME280;66279;42.820;23.374;2024-03-02T05:11:16;95157.78;;;13.86;57.31
77247;BME280;66279;42.820;23.374;2024-03-02T05:14:11;95160.72;;;14.01;57.02
77247;BME280;66279;42.820;23.374;2024-03-02T05:16:36;95162.78;;;13.99;56.87
77247;BME280;66279;42.820;23.374;2024-03-02T05:19:03;95164.63;;;13.81;57.31
77247;BME280;66279;42.820;23.374;2024-03-02T05:21:31;95160.69;;;13.84;57.35
77247;BME280;66279;42.820;23.374;2024-03-02T05:23:57;95170.66;;;13.77;57.62
77247;BME280;66279;42.820;23.374;2024-03-02T05:26:22;95167.69;;;13.90;56.92
77247;BME280;66279;42.820;23.374;2024-03-02T05:28:48;95156.88;;;13.80;57.04
77247;BME280;66279;42.820;23.374;2024-03-02T05:31:16;95169.13;;;13.81;57.14
77247;BME280;66279;42.820;23.374;2024-03-02T05:33:42;95171.47;;;13.77;57.36
77247;BME280;66279;42.820;23.374;2024-03-02T05:36:08;95180.19;;;13.90;57.12
77247;BME280;66279;42.820;23.374;2024-03-02T05:38:36;95165.56;;;13.75;57.11
77247;BME280;66279;42.820;23.374;2024-03-02T05:41:02;95189.88;;;13.96;56.63
77247;BME280;66279;42.820;23.374;2024-03-02T05:43:27;95180.16;;;13.73;57.12
77247;BME280;66279;42.820;23.374;2024-03-02T05:45:52;95193.66;;;13.83;57.11
77247;BME280;66279;42.820;23.374;2024-03-02T05:48:18;95193.41;;;13.85;57.19
77247;BME280;66279;42.820;23.374;2024-03-02T05:50:43;95177.59;;;13.78;57.00
77247;BME280;66279;42.820;23.374;2024-03-02T05:53:09;95196.47;;;13.76;57.39
77247;BME280;66279;42.820;23.374;2024-03-02T05:55:34;95196.75;;;13.92;56.77
77247;BME280;66279;42.820;23.374;2024-03-02T05:58:00;95201.41;;;13.85;57.17
77247;BME280;66279;42.820;23.374;2024-03-02T06:00:31;95181.84;;;13.62;57.41
77247;BME280;66279;42.820;23.374;2024-03-02T06:02:56;95193.47;;;13.73;57.23
77247;BME280;66279;42.820;23.374;2024-03-02T06:05:22;95189.34;;;13.65;57.35
77247;BME280;66279;42.820;23.374;2024-03-02T06:07:47;95203.72;;;13.81;56.99
77247;BME280;66279;42.820;23.374;2024-03-02T06:10:13;95198.72;;;13.85;56.94
77247;BME280;66279;42.820;23.374;2024-03-02T06:12:38;95192.28;;;13.80;56.85
77247;BME280;66279;42.820;23.374;2024-03-02T06:15:04;95205.06;;;13.95;56.41
77247;BME280;66279;42.820;23.374;2024-03-02T06:17:29;95200.25;;;13.80;57.12
77247;BME280;66279;42.820;23.374;2024-03-02T06:19:55;95204.22;;;13.78;56.98
77247;BME280;66279;42.820;23.374;2024-03-02T06:22:21;95197.50;;;13.75;56.90
77247;BME280;66279;42.820;23.374;2024-03-02T06:24:48;95204.22;;;13.78;56.99
77247;BME280;66279;42.820;23.374;2024-03-02T06:27:14;95210.19;;;13.85;56.90
77247;BME280;66279;42.820;23.374;2024-03-02T06:29:39;95205.75;;;13.74;57.08
77247;BME280;66279;42.820;23.374;2024-03-02T06:32:05;95196.03;;;13.68;57.31
77247;BME280;66279;42.820;23.374;2024-03-02T06:34:30;95211.72;;;13.81;57.05
77247;BME280;66279;42.820;23.374;2024-03-02T06:36:56;95204.09;;;13.73;57.04
77247;BME280;66279;42.820;23.374;2024-03-02T06:39:21;95188.72;;;13.75;56.53
77247;BME280;66279;42.820;23.374;2024-03-02T06:41:47;95213.38;;;13.70;57.18
77247;BME280;66279;42.820;23.374;2024-03-02T06:44:13;95209.25;;;13.63;57.45
77247;BME280;66279;42.820;23.374;2024-03-02T06:46:38;95206.28;;;13.76;56.91
77247;BME280;66279;42.820;23.374;2024-03-02T06:49:04;95220.41;;;13.76;57.09
77247;BME280;66279;42.820;23.374;2024-03-02T06:51:30;95219.66;;;13.64;57.58
77247;BME280;66279;42.820;23.374;2024-03-02T06:53:56;95210.28;;;13.62;57.27
77247;BME280;66279;42.820;23.374;2024-03-02T06:56:21;95226.25;;;13.90;56.20
77247;BME280;66279;42.820;23.374;2024-03-02T06:58:46;95212.81;;;13.68;56.83
77247;BME280;66279;42.820;23.374;2024-03-02T07:01:12;95224.50;;;13.67;56.99
77247;BME280;66279;42.820;23.374;2024-03-02T07:03:38;95227.66;;;13.64;57.18
77247;BME280;66279;42.820;23.374;2024-03-02T07:06:05;95214.22;;;13.59;57.02
77247;BME280;66279;42.820;23.374;2024-03-02T07:08:31;95225.56;;;13.54;57.41
77247;BME280;66279;42.820;23.374;2024-03-02T07:10:56;95226.44;;;13.72;56.82
77247;BME280;66279;42.820;23.374;2024-03-02T07:13:25;95219.84;;;13.74;56.61
77247;BME280;66279;42.820;23.374;2024-03-02T07:15:50;95232.25;;;13.69;57.24
77247;BME280;66279;42.820;23.374;2024-03-02T07:18:22;95234.44;;;13.72;57.12
77247;BME280;66279;42.820;23.374;2024-03-02T07:20:47;95208.63;;;13.72;56.62
77247;BME280;66279;42.820;23.374;2024-03-02T07:23:15;95230.59;;;13.79;56.62
77247;BME280;66279;42.820;23.374;2024-03-02T07:25:40;95212.88;;;13.45;57.56
77247;BME280;66279;42.820;23.374;2024-03-02T07:28:06;95218.03;;;13.63;56.78
77247;BME280;66279;42.820;23.374;2024-03-02T07:30:32;95232.88;;;13.76;56.67
77247;BME280;66279;42.820;23.374;2024-03-02T07:32:59;95224.41;;;13.62;56.96
77247;BME280;66279;42.820;23.374;2024-03-02T07:35:25;95234.91;;;13.69;57.00
77247;BME280;66279;42.820;23.374;2024-03-02T07:37:53;95225.34;;;13.56;56.97
77247;BME280;66279;42.820;23.374;2024-03-02T07:40:19;95225.72;;;13.48;57.42
77247;BME280;66279;42.820;23.374;2024-03-02T07:42:45;95236.94;;;13.50;57.42
77247;BME280;66279;42.820;23.374;2024-03-02T07:45:11;95244.25;;;13.71;56.82
77247;BME280;66279;42.820;23.374;2024-03-02T07:47:36;95217.03;;;13.52;56.96
77247;BME280;66279;42.820;23.374;2024-03-02T07:50:02;95231.31;;;13.63;56.76
77247;BME280;66279;42.820;23.374;2024-03-02T07:52:28;95249.09;;;13.74;56.67
77247;BME280;66279;42.820;23.374;2024-03-02T07:54:54;95250.50;;;13.77;56.94
77247;BME280;66279;42.820;23.374;2024-03-02T07:57:20;95249.41;;;13.61;56.85
77247;BME280;66279;42.820;23.374;2024-03-02T07:59:46;95247.88;;;13.65;56.90
77247;BME280;66279;42.820;23.374;2024-03-02T08:02:12;95235.06;;;13.50;57.02
77247;BME280;66279;42.820;23.374;2024-03-02T08:04:37;95236.47;;;13.53;57.01
77247;BME280;66279;42.820;23.374;2024-03-02T08:07:03;95255.41;;;13.56;57.27
77247;BME280;66279;42.820;23.374;2024-03-02T08:09:29;95222.97;;;13.43;57.12
77247;BME280;66279;42.820;23.374;2024-03-02T08:11:55;95250.09;;;13.56;57.19
77247;BME280;66279;42.820;23.374;2024-03-02T08:14:22;95257.84;;;13.58;57.08
77247;BME280;66279;42.820;23.374;2024-03-02T08:16:47;95253.06;;;13.60;57.23
77247;BME280;66279;42.820;23.374;2024-03-02T08:19:13;95254.25;;;13.64;57.13
77247;BME280;66279;42.820;23.374;2024-03-02T08:21:38;95251.97;;;13.44;57.35
77247;BME280;66279;42.820;23.374;2024-03-02T08:24:04;95256.38;;;13.39;57.77
77247;BME280;66279;42.820;23.374;2024-03-02T08:26:30;95239.41;;;13.40;57.18
77247;BME280;66279;42.820;23.374;2024-03-02T08:28:57;95258.88;;;13.57;57.30
77247;BME280;66279;42.820;23.374;2024-03-02T08:31:23;95254.03;;;13.54;57.28
77247;BME280;66279;42.820;23.374;2024-03-02T08:33:48;95255.19;;;13.58;57.15
77247;BME280;66279;42.820;23.374;2024-03-02T08:36:14;95247.00;;;13.48;57.28
77247;BME280;66279;42.820;23.374;2024-03-02T08:38:40;95256.38;;;13.39;57.69
77247;BME280;66279;42.820;23.374;2024-03-02T08:41:06;95255.69;;;13.43;57.33
77247;BME280;66279;42.820;23.374;2024-03-02T08:43:32;95253.38;;;13.35;57.89
77247;BME280;66279;42.820;23.374;2024-03-02T08:45:58;95261.81;;;13.32;57.73
77247;BME280;66279;42.820;23.374;2024-03-02T08:48:24;95243.94;;;13.27;57.88
77247;BME280;66279;42.820;23.374;2024-03-02T08:50:49;95258.00;;;13.40;57.58
77247;BME280;66279;42.820;23.374;2024-03-02T08:53:14;95252.91;;;13.38;57.69
77247;BME280;66279;42.820;23.374;2024-03-02T08:55:47;95256.75;;;13.30;57.83
77247;BME280;66279;42.820;23.374;2024-03-02T08:58:13;95253.16;;;13.37;57.80
77247;BME280;66279;42.820;23.374;2024-03-02T09:00:38;95253.56;;;13.45;57.51
77247;BME280;66279;42.820;23.374;2024-03-02T09:03:04;95254.63;;;13.44;57.41
77247;BME280;66279;42.820;23.374;2024-03-02T09:05:29;95262.38;;;13.46;57.53
77247;BME280;66279;42.820;23.374;2024-03-02T09:07:55;95250.84;;;13.40;57.62
77247;BME280;66279;42.820;23.374;2024-03-02T09:10:20;95256.25;;;13.45;57.60
77247;BME280;66279;42.820;23.374;2024-03-02T09:12:46;95242.41;;;13.31;57.64
77247;BME280;66279;42.820;23.374;2024-03-02T09:15:11;95261.47;;;13.40;57.36
77247;BME280;66279;42.820;23.374;2024-03-02T09:17:37;95258.91;;;13.45;57.65
77247;BME280;66279;42.820;23.374;2024-03-02T09:20:02;95257.66;;;13.36;57.72
77247;BME280;66279;42.820;23.374;2024-03-02T09:22:29;95263.75;;;13.48;57.30
77247;BME280;66279;42.820;23.374;2024-03-02T09:24:55;95264.00;;;13.23;57.97
77247;BME280;66279;42.820;23.374;2024-03-02T09:27:21;95263.53;;;13.50;57.39
77247;BME280;66279;42.820;23.374;2024-03-02T09:29:47;95255.94;;;13.30;57.70
77247;BME280;66279;42.820;23.374;2024-03-02T09:32:13;95252.94;;;13.26;57.94
77247;BME280;66279;42.820;23.374;2024-03-02T09:34:39;95266.00;;;13.40;57.58
77247;BME280;66279;42.820;23.374;2024-03-02T09:37:05;95264.34;;;13.39;57.67
77247;BME280;66279;42.820;23.374;2024-03-02T09:39:31;95275.69;;;13.46;57.56
77247;BME280;66279;42.820;23.374;2024-03-02T09:41:57;95270.38;;;13.34;57.63
77247;BME280;66279;42.820;23.374;2024-03-02T09:44:24;95270.91;;;13.48;57.53
77247;BME280;66279;42.820;23.374;2024-03-02T09:46:50;95270.91;;;13.48;57.39
77247;BME280;66279;42.820;23.374;2024-03-02T09:49:16;95272.59;;;13.37;57.66
77247;BME280;66279;42.820;23.374;2024-03-02T09:51:47;95259.75;;;13.34;57.76
77247;BME280;66279;42.820;23.374;2024-03-02T09:54:12;95263.06;;;13.18;58.25
77247;BME280;66279;42.820;23.374;2024-03-02T09:56:39;95276.25;;;13.36;57.67
77247;BME280;66279;42.820;23.374;2024-03-02T09:59:04;95273.25;;;13.44;57.58
77247;BME280;66279;42.820;23.374;2024-03-02T10:01:30;95272.34;;;13.39;57.77
77247;BME280;66279;42.820;23.374;2024-03-02T10:03:59;95274.53;;;13.30;58.04
77247;BME280;66279;42.820;23.374;2024-03-02T10:06:26;95276.50;;;13.11;58.35
77247;BME280;66279;42.820;23.374;2024-03-02T10:08:53;95277.75;;;12.61;59.47
77247;BME280;66279;42.820;23.374;2024-03-02T10:11:29;95276.38;;;12.71;59.24
77247;BME280;66279;42.820;23.374;2024-03-02T10:16:40;95276.19;;;12.84;59.15
77247;BME280;66279;42.820;23.374;2024-03-02T10:19:16;95273.75;;;13.06;58.40
77247;BME280;66279;42.820;23.374;2024-03-02T10:21:46;95266.69;;;13.00;58.66
77247;BME280;66279;42.820;23.374;2024-03-02T10:24:11;95266.91;;;13.10;58.41
77247;BME280;66279;42.820;23.374;2024-03-02T10:26:38;95265.78;;;13.06;58.51
77247;BME280;66279;42.820;23.374;2024-03-02T10:29:03;95276.63;;;13.04;58.49
77247;BME280;66279;42.820;23.374;2024-03-02T10:31:29;95267.84;;;13.16;58.12
77247;BME280;66279;42.820;23.374;2024-03-02T10:33:55;95253.63;;;12.98;58.38
77247;BME280;66279;42.820;23.374;2024-03-02T10:36:21;95270.63;;;13.09;58.43
77247;BME280;66279;42.820;23.374;2024-03-02T10:38:46;95272.13;;;13.05;58.41
77247;BME280;66279;42.820;23.374;2024-03-02T10:41:17;95265.19;;;13.04;58.57
77247;BME280;66279;42.820;23.374;2024-03-02T10:43:43;95265.19;;;13.27;57.78
77247;BME280;66279;42.820;23.374;2024-03-02T10:46:10;95269.81;;;13.08;58.35
77247;BME280;66279;42.820;23.374;2024-03-02T10:48:39;95254.09;;;12.95;58.54
77247;BME280;66279;42.820;23.374;2024-03-02T10:51:06;95267.84;;;13.04;58.35
77247;BME280;66279;42.820;23.374;2024-03-02T10:53:32;95255.59;;;13.03;58.29
77247;BME280;66279;42.820;23.374;2024-03-02T10:55:58;95260.47;;;13.06;58.37
77247;BME280;66279;42.820;23.374;2024-03-02T10:58:32;95260.69;;;13.28;57.62
77247;BME280;66279;42.820;23.374;2024-03-02T11:01:02;95233.75;;;13.01;58.04
77247;BME280;66279;42.820;23.374;2024-03-02T11:03:29;95254.34;;;13.05;58.09
77247;BME280;66279;42.820;23.374;2024-03-02T11:05:59;95247.50;;;13.09;57.87
77247;BME280;66279;42.820;23.374;2024-03-02T11:08:26;95247.63;;;13.26;57.67
77247;BME280;66279;42.820;23.374;2024-03-02T11:11:03;95223.13;;;13.01;57.76
77247;BME280;66279;42.820;23.374;2024-03-02T11:13:32;95241.84;;;13.06;57.94
77247;BME280;66279;42.820;23.374;2024-03-02T11:16:09;95250.50;;;13.13;57.74
77247;BME280;66279;42.820;23.374;2024-03-02T11:18:38;95250.16;;;13.09;58.10
77247;BME280;66279;42.820;23.374;2024-03-02T11:21:05;95246.00;;;13.02;58.09
77247;BME280;66279;42.820;23.374;2024-03-02T11:23:32;95229.72;;;12.98;58.21
77247;BME280;66279;42.820;23.374;2024-03-02T11:26:18;95242.66;;;13.06;58.20
77247;BME280;66279;42.820;23.374;2024-03-02T11:28:44;95243.59;;;13.12;58.12
77247;BME280;66279;42.820;23.374;2024-03-02T11:31:10;95242.41;;;13.08;58.09
77247;BME280;66279;42.820;23.374;2024-03-02T11:33:35;95214.16;;;12.90;58.31
77247;BME280;66279;42.820;23.374;2024-03-02T11:36:01;95247.72;;;13.08;58.35
77247;BME280;66279;42.820;23.374;2024-03-02T11:38:31;95221.28;;;13.01;58.43
77247;BME280;66279;42.820;23.374;2024-03-02T11:41:00;95214.69;;;12.92;58.19
77247;BME280;66279;42.820;23.374;2024-03-02T11:43:28;95228.91;;;12.98;58.34
77247;BME280;66279;42.820;23.374;2024-03-02T11:45:58;95233.41;;;13.09;58.11
77247;BME280;66279;42.820;23.374;2024-03-02T11:48:25;95240.13;;;12.88;60.98
77247;BME280;66279;42.820;23.374;2024-03-02T11:50:51;95218.31;;;12.62;68.11
77247;BME280;66279;42.820;23.374;2024-03-02T11:53:17;95242.00;;;12.87;68.91
77247;BME280;66279;42.820;23.374;2024-03-02T11:55:44;95231.44;;;12.93;70.67
77247;BME280;66279;42.820;23.374;2024-03-02T11:58:12;95231.66;;;13.14;70.48
77247;BME280;66279;42.820;23.374;2024-03-02T12:00:38;95250.13;;;13.33;70.04
77247;BME280;66279;42.820;23.374;2024-03-02T12:03:06;95231.88;;;13.37;69.84
77247;BME280;66279;42.820;23.374;2024-03-02T12:05:32;95243.53;;;13.47;68.04
77247;BME280;66279;42.820;23.374;2024-03-02T12:08:02;95235.50;;;13.30;63.65
77247;BME280;66279;42.820;23.374;2024-03-02T12:10:28;95234.22;;;13.09;62.31
77247;BME280;66279;42.820;23.374;2024-03-02T12:15:28;95236.50;;;13.18;62.00
77247;BME280;66279;42.820;23.374;2024-03-02T12:17:57;95226.22;;;13.21;61.60
77247;BME280;66279;42.820;23.374;2024-03-02T12:20:24;95234.44;;;13.31;61.45
77247;BME280;66279;42.820;23.374;2024-03-02T12:22:53;95230.38;;;13.29;61.28
77247;BME280;66279;42.820;23.374;2024-03-02T12:25:20;95236.97;;;13.38;61.28
77247;BME280;66279;42.820;23.374;2024-03-02T12:27:47;95221.38;;;13.30;60.96
77247;BME280;66279;42.820;23.374;2024-03-02T12:30:15;95233.94;;;13.46;61.01
77247;BME280;66279;42.820;23.374;2024-03-02T12:32:41;95233.94;;;13.46;60.77
77247;BME280;66279;42.820;23.374;2024-03-02T12:35:07;95211.75;;;13.41;60.76
77247;BME280;66279;42.820;23.374;2024-03-02T12:37:33;95232.53;;;13.55;60.64
77247;BME280;66279;42.820;23.374;2024-03-02T12:39:59;95217.84;;;13.53;60.15
77247;BME280;66279;42.820;23.374;2024-03-02T12:42:24;95231.56;;;13.62;60.20
77247;BME280;66279;42.820;23.374;2024-03-02T12:44:53;95232.38;;;13.62;60.24
77247;BME280;66279;42.820;23.374;2024-03-02T12:47:20;95209.88;;;13.53;60.17
77247;BME280;66279;42.820;23.374;2024-03-02T12:49:46;95235.16;;;13.67;60.27
77247;BME280;66279;42.820;23.374;2024-03-02T12:52:14;95223.34;;;13.63;59.59
77247;BME280;66279;42.820;23.374;2024-03-02T12:54:39;95214.13;;;13.54;59.69
77247;BME280;66279;42.820;23.374;2024-03-02T12:57:05;95231.66;;;13.67;59.74